createdAt,value
2022-11-16T00:00:06.105Z,1.00
2022-11-16T00:02:35.318Z,99.90
2022-11-16T00:05:03.531Z,99.90
2022-11-16T00:07:31.791Z,99.90
2022-11-16T00:09:59.946Z,99.90
2022-11-16T00:12:29.493Z,99.90
2022-11-16T00:14:57.661Z,99.90
2022-11-16T00:17:25.781Z,70.70
2022-11-16T00:19:53.894Z,99.90
2022-11-16T00:22:22.047Z,99.90
2022-11-16T00:24:50.200Z,99.90
2022-11-16T00:27:18.300Z,99.90
2022-11-16T00:29:47.852Z,99.90
2022-11-16T00:32:15.957Z,99.90
2022-11-16T00:34:44.026Z,99.90
2022-11-16T00:37:12.190Z,99.90
2022-11-16T00:39:40.232Z,99.90
2022-11-16T00:42:08.355Z,99.90
2022-11-16T00:44:36.486Z,1.00
2022-11-16T00:47:06.414Z,30.40
2022-11-16T00:49:34.618Z,1.00
2022-11-16T00:52:02.697Z,41.00
2022-11-16T00:54:30.896Z,99.90
2022-11-16T00:56:59.006Z,1.00
2022-11-16T00:59:27.080Z,99.90
2022-11-16T01:01:55.236Z,99.90
2022-11-16T01:04:24.753Z,1.00
2022-11-16T01:06:52.901Z,39.00
2022-11-16T01:09:21.002Z,1.00
2022-11-16T01:12:06.467Z,1.00
2022-11-16T01:14:34.813Z,1.00
2022-11-16T01:17:03.018Z,99.90
2022-11-16T01:19:32.728Z,1.00
2022-11-16T01:22:00.979Z,99.90
2022-11-16T01:24:29.137Z,1.00
2022-11-16T01:26:58.345Z,1.00
2022-11-16T01:29:26.591Z,1.00
2022-11-16T01:31:55.146Z,99.90
2022-11-16T01:34:24.105Z,99.90
2022-11-16T01:36:53.742Z,99.90
2022-11-16T01:39:21.858Z,1.00
2022-11-16T01:41:50.084Z,13.20
2022-11-16T01:44:59.500Z,99.90
2022-11-16T01:47:27.931Z,99.90
2022-11-16T01:50:03.437Z,99.90
2022-11-16T01:52:35.996Z,99.90
2022-11-16T01:55:04.941Z,99.90
2022-11-16T01:57:40.721Z,99.90
2022-11-16T02:00:12.008Z,99.90
2022-11-16T02:02:40.093Z,99.90
2022-11-16T02:05:09.732Z,99.90
2022-11-16T02:08:22.194Z,1.00
2022-11-16T02:11:10.701Z,1.00
2022-11-16T02:13:50.311Z,1.00
2022-11-16T02:16:30.395Z,1.00
2022-11-16T02:19:09.562Z,1.00
2022-11-16T02:21:42.495Z,1.00
2022-11-16T02:24:37.726Z,1.00
2022-11-16T02:27:44.696Z,1.00
2022-11-16T02:30:15.035Z,1.00
2022-11-16T02:32:49.295Z,1.00
2022-11-16T02:35:22.070Z,1.00
2022-11-16T02:37:53.670Z,1.00
2022-11-16T02:40:24.608Z,1.00
2022-11-16T02:42:56.229Z,1.00
2022-11-16T02:45:29.040Z,1.00
2022-11-16T02:48:02.693Z,1.00
2022-11-16T02:50:32.730Z,1.00
2022-11-16T02:53:00.799Z,1.00
2022-11-16T02:55:31.346Z,1.00
2022-11-16T02:58:01.145Z,1.00
2022-11-16T03:00:37.174Z,1.00
2022-11-16T03:03:16.546Z,1.00
2022-11-16T03:05:49.231Z,1.00
2022-11-16T03:08:23.198Z,1.00
2022-11-16T03:11:12.692Z,1.00
2022-11-16T03:13:42.553Z,1.00
2022-11-16T03:16:18.324Z,1.00
2022-11-16T03:18:49.303Z,1.00
2022-11-16T03:21:26.055Z,1.00
2022-11-16T03:23:54.262Z,1.00
2022-11-16T03:26:27.298Z,1.00
2022-11-16T03:29:02.825Z,1.00
2022-11-16T03:31:37.183Z,1.00
2022-11-16T03:34:09.533Z,1.00
2022-11-16T03:36:41.017Z,1.00
2022-11-16T03:39:14.143Z,1.00
2022-11-16T03:41:45.207Z,1.00
2022-11-16T03:44:15.508Z,1.00
2022-11-16T03:46:46.595Z,1.00
2022-11-16T03:49:14.660Z,1.00
2022-11-16T03:51:42.925Z,1.00
2022-11-16T03:54:11.005Z,1.00
2022-11-16T03:56:39.212Z,1.00
2022-11-16T03:59:07.344Z,1.00
2022-11-16T04:01:38.213Z,1.00
2022-11-16T04:04:30.743Z,1.00
2022-11-16T04:07:16.169Z,1.00
2022-11-16T04:10:01.480Z,1.00
2022-11-16T04:12:47.338Z,1.00
2022-11-16T04:15:32.804Z,1.00
2022-11-16T04:18:18.009Z,1.00
2022-11-16T04:21:05.578Z,1.00
2022-11-16T04:23:50.936Z,1.00
2022-11-16T04:26:19.050Z,1.00
2022-11-16T04:28:46.132Z,1.00
2022-11-16T04:31:31.564Z,1.00
2022-11-16T04:34:17.380Z,1.00
2022-11-16T04:37:06.338Z,1.00
2022-11-16T04:39:34.353Z,1.00
2022-11-16T04:42:19.862Z,1.00
2022-11-16T04:45:05.575Z,1.00
2022-11-16T04:47:33.759Z,1.00
2022-11-16T04:50:01.831Z,1.00
2022-11-16T04:52:31.448Z,1.00
2022-11-16T04:54:59.534Z,1.00
2022-11-16T04:57:27.593Z,1.00
2022-11-16T04:59:55.703Z,1.00
2022-11-16T05:02:23.835Z,1.00
2022-11-16T05:04:52.039Z,1.00
2022-11-16T05:07:20.078Z,1.00
2022-11-16T05:09:50.649Z,1.00
2022-11-16T05:12:21.204Z,1.00
2022-11-16T05:14:49.444Z,1.00
2022-11-16T05:17:19.089Z,1.00
2022-11-16T05:20:04.479Z,1.00
2022-11-16T05:22:32.840Z,1.00
2022-11-16T05:25:03.061Z,1.00
2022-11-16T05:27:31.767Z,12.60
2022-11-16T05:30:00.223Z,17.50
2022-11-16T05:32:29.181Z,20.30
2022-11-16T05:34:57.272Z,21.00
2022-11-16T05:37:26.702Z,17.00
2022-11-16T05:39:56.948Z,14.90
2022-11-16T05:42:26.509Z,14.50
2022-11-16T05:44:54.577Z,12.20
2022-11-16T05:47:22.608Z,9.60
2022-11-16T05:49:51.830Z,12.70
2022-11-16T05:52:19.922Z,12.40
2022-11-16T05:54:47.990Z,7.60
2022-11-16T05:57:17.483Z,7.00
2022-11-16T05:59:47.112Z,9.30
2022-11-16T06:02:15.160Z,12.00
2022-11-16T06:04:43.241Z,4.50
2022-11-16T06:07:11.380Z,9.70
2022-11-16T06:09:39.565Z,3.90
2022-11-16T06:12:09.249Z,1.00
2022-11-16T06:14:37.340Z,1.00
2022-11-16T06:17:06.926Z,1.00
2022-11-16T06:19:36.214Z,1.00
2022-11-16T06:22:04.293Z,1.00
2022-11-16T06:24:32.316Z,2.60
2022-11-16T06:27:00.489Z,7.00
2022-11-16T06:29:28.568Z,7.50
2022-11-16T06:31:56.686Z,10.00
2022-11-16T06:34:26.160Z,5.30
2022-11-16T06:36:54.254Z,14.50
2022-11-16T06:39:22.453Z,17.80
2022-11-16T06:41:50.561Z,14.60
2022-11-16T06:44:18.641Z,12.10
2022-11-16T06:46:46.686Z,14.00
2022-11-16T06:49:14.991Z,12.80
2022-11-16T06:51:44.402Z,11.40
2022-11-16T06:54:12.521Z,16.80
2022-11-16T06:56:40.626Z,1.00
2022-11-16T06:59:08.704Z,1.00
2022-11-16T07:01:37.036Z,1.00
2022-11-16T07:04:05.150Z,1.00
2022-11-16T07:06:33.435Z,1.00
2022-11-16T07:09:03.296Z,1.00
2022-11-16T07:11:31.451Z,1.00
2022-11-16T07:13:59.767Z,1.00
2022-11-16T07:16:27.838Z,1.00
2022-11-16T07:18:57.850Z,1.00
2022-11-16T07:21:26.512Z,1.00
2022-11-16T07:23:54.740Z,1.00
2022-11-16T07:26:24.255Z,1.00
2022-11-16T07:28:52.371Z,1.00
2022-11-16T07:31:20.547Z,1.00
2022-11-16T07:33:48.830Z,1.00
2022-11-16T07:36:17.095Z,1.00
2022-11-16T07:38:45.288Z,1.00
2022-11-16T07:41:18.597Z,1.00
2022-11-16T07:43:52.835Z,1.00
2022-11-16T07:46:46.696Z,1.00
2022-11-16T07:49:14.800Z,1.00
2022-11-16T07:51:43.482Z,1.00
2022-11-16T07:54:13.387Z,1.00
2022-11-16T07:56:41.810Z,99.90
2022-11-16T07:59:11.514Z,99.90
2022-11-16T08:01:39.721Z,99.90
2022-11-16T08:04:07.908Z,99.90
2022-11-16T08:06:36.019Z,99.90
2022-11-16T08:09:04.506Z,99.90
2022-11-16T08:11:32.641Z,1.00
2022-11-16T08:14:00.739Z,1.00
2022-11-16T08:16:33.290Z,99.90
2022-11-16T08:19:02.383Z,99.90
2022-11-16T08:21:30.664Z,99.90
2022-11-16T08:23:59.165Z,1.00
2022-11-16T08:26:28.381Z,99.90
2022-11-16T08:28:57.304Z,1.00
2022-11-16T08:31:27.912Z,1.00
2022-11-16T08:33:57.835Z,1.00
2022-11-16T08:36:26.379Z,1.00
2022-11-16T08:38:55.261Z,99.90
2022-11-16T08:41:24.488Z,99.90
2022-11-16T08:43:54.105Z,99.90
2022-11-16T08:46:22.845Z,99.90
2022-11-16T08:48:51.202Z,99.90
2022-11-16T08:51:21.428Z,1.00
2022-11-16T08:53:50.312Z,99.90
2022-11-16T08:56:19.609Z,99.90
2022-11-16T08:58:50.402Z,99.90
2022-11-16T09:01:23.440Z,1.00
2022-11-16T09:03:52.805Z,99.90
2022-11-16T09:06:23.638Z,10.10
2022-11-16T09:08:54.884Z,1.00
2022-11-16T09:11:24.425Z,99.90
2022-11-16T09:13:54.718Z,99.90
2022-11-16T09:16:23.677Z,99.90
2022-11-16T09:18:52.805Z,1.00
2022-11-16T09:21:24.604Z,75.10
2022-11-16T09:23:53.282Z,1.00
2022-11-16T09:26:23.223Z,1.00
2022-11-16T09:28:56.893Z,1.00
2022-11-16T09:31:27.446Z,19.20
2022-11-16T09:33:58.328Z,99.90
2022-11-16T09:36:29.462Z,99.90
2022-11-16T09:41:57.567Z,99.90
2022-11-16T09:44:53.403Z,99.90
2022-11-16T09:47:25.168Z,99.90
2022-11-16T09:50:00.015Z,39.40
2022-11-16T09:52:35.663Z,99.90
2022-11-16T09:55:24.117Z,99.90
2022-11-16T09:57:55.070Z,99.90
2022-11-16T10:00:24.885Z,1.00
2022-11-16T10:03:03.520Z,1.00
2022-11-16T10:05:38.657Z,99.90
2022-11-16T10:08:16.855Z,99.90
2022-11-16T10:10:54.198Z,67.20
2022-11-16T10:13:39.291Z,99.90
2022-11-16T10:16:16.428Z,99.90
2022-11-16T10:18:53.766Z,99.90
2022-11-16T10:21:51.509Z,1.00
2022-11-16T10:24:40.826Z,1.00
2022-11-16T10:27:25.182Z,99.90
2022-11-16T10:30:00.840Z,1.00
2022-11-16T10:32:32.265Z,1.00
2022-11-16T10:35:05.342Z,1.00
2022-11-16T10:37:36.906Z,1.00
2022-11-16T10:40:19.561Z,1.00
2022-11-16T10:42:54.889Z,81.50
2022-11-16T10:45:29.949Z,1.00
2022-11-16T10:48:02.940Z,99.90
2022-11-16T10:50:35.989Z,52.00
2022-11-16T10:53:04.499Z,1.00
2022-11-16T10:55:34.180Z,1.00
2022-11-16T10:58:04.213Z,1.00
2022-11-16T11:00:37.781Z,1.00
2022-11-16T11:03:06.252Z,99.90
2022-11-16T11:05:36.220Z,99.90
2022-11-16T11:08:07.401Z,99.90
2022-11-16T11:10:38.682Z,99.90
2022-11-16T11:13:24.259Z,99.90
2022-11-16T11:15:53.295Z,99.90
2022-11-16T11:18:27.845Z,99.90
2022-11-16T11:21:08.279Z,99.90
2022-11-16T11:23:43.683Z,99.90
2022-11-16T11:26:34.762Z,99.90
2022-11-16T11:29:16.928Z,99.90
2022-11-16T11:31:48.448Z,99.90
2022-11-16T11:34:20.221Z,99.90
2022-11-16T11:36:51.831Z,99.90
2022-11-16T11:39:44.283Z,99.90
2022-11-16T11:42:34.988Z,99.90
2022-11-16T11:45:07.052Z,99.90
2022-11-16T11:48:01.191Z,99.90
2022-11-16T11:50:42.422Z,99.90
2022-11-16T11:53:37.363Z,99.90
2022-11-16T11:56:06.138Z,99.90
2022-11-16T11:58:39.775Z,99.90
2022-11-16T12:01:29.211Z,99.90
2022-11-16T12:04:17.271Z,99.90
2022-11-16T12:06:53.755Z,99.90
2022-11-16T12:09:35.634Z,99.90
2022-11-16T12:12:15.701Z,99.90
2022-11-16T12:15:01.924Z,99.90
2022-11-16T12:17:42.135Z,99.90
2022-11-16T12:20:23.132Z,99.90
2022-11-16T12:23:24.233Z,99.90
2022-11-16T12:26:00.807Z,99.90
2022-11-16T12:28:52.574Z,99.90
2022-11-16T12:31:38.718Z,99.90
2022-11-16T12:34:16.164Z,99.90
2022-11-16T12:36:53.322Z,99.90
2022-11-16T12:39:25.527Z,99.90
2022-11-16T12:42:22.980Z,99.90
2022-11-16T12:45:16.942Z,99.90
2022-11-16T12:48:04.661Z,99.90
2022-11-16T12:50:44.179Z,99.90
2022-11-16T12:53:28.578Z,99.90
2022-11-16T12:56:09.470Z,99.90
2022-11-16T12:58:56.275Z,99.90
2022-11-16T13:01:33.080Z,99.90
2022-11-16T13:04:08.595Z,99.90
2022-11-16T13:06:41.441Z,99.90
2022-11-16T13:09:14.193Z,99.90
2022-11-16T13:11:45.783Z,99.90
2022-11-16T13:14:18.160Z,99.90
2022-11-16T13:16:47.473Z,99.90
2022-11-16T13:19:18.327Z,99.90
2022-11-16T13:21:52.907Z,99.90
2022-11-16T13:24:48.262Z,99.90
2022-11-16T13:27:24.407Z,99.90
2022-11-16T13:30:00.201Z,99.90
2022-11-16T13:32:43.147Z,99.90
2022-11-16T13:35:17.687Z,99.90
2022-11-16T13:37:48.431Z,99.90
2022-11-16T13:40:31.139Z,99.90
2022-11-16T13:43:17.681Z,99.90
2022-11-16T13:45:57.067Z,99.90
2022-11-16T13:48:30.627Z,99.90
2022-11-16T13:51:03.920Z,99.90
2022-11-16T13:56:29.213Z,99.90
2022-11-16T13:58:59.538Z,99.90
2022-11-16T14:01:58.584Z,99.90
2022-11-16T14:04:41.834Z,99.90
2022-11-16T14:07:36.441Z,99.90
2022-11-16T14:10:08.379Z,99.90
2022-11-16T14:12:58.232Z,99.90
2022-11-16T14:15:33.448Z,99.90
2022-11-16T14:18:18.520Z,99.90
2022-11-16T14:21:00.920Z,99.90
2022-11-16T14:23:40.075Z,99.90
2022-11-16T14:26:19.771Z,99.90
2022-11-16T14:29:02.958Z,99.90
2022-11-16T14:31:33.295Z,99.90
2022-11-16T14:34:02.588Z,99.90
2022-11-16T14:36:38.976Z,99.90
2022-11-16T14:39:38.442Z,99.90
2022-11-16T14:42:16.501Z,99.90
2022-11-16T14:44:45.418Z,99.90
2022-11-16T14:47:25.131Z,99.90
2022-11-16T14:49:53.778Z,99.90
2022-11-16T14:52:30.064Z,99.90
2022-11-16T14:55:04.619Z,99.90
2022-11-16T14:57:32.896Z,99.90
2022-11-16T15:00:21.399Z,99.90
2022-11-16T15:02:52.952Z,99.90
2022-11-16T15:05:27.988Z,99.90
2022-11-16T15:07:59.738Z,99.90
2022-11-16T15:10:30.575Z,99.90
2022-11-16T15:12:59.800Z,99.90
2022-11-16T15:15:29.981Z,99.90
2022-11-16T15:18:08.399Z,99.90
2022-11-16T15:20:38.476Z,99.90
2022-11-16T15:23:14.595Z,99.90
2022-11-16T15:25:46.360Z,99.90
2022-11-16T15:28:18.832Z,99.90
2022-11-16T15:30:50.138Z,99.90
2022-11-16T15:33:23.650Z,99.90
2022-11-16T15:35:53.942Z,99.90
2022-11-16T15:38:24.242Z,99.90
2022-11-16T15:40:56.036Z,99.90
2022-11-16T15:43:27.681Z,99.90
2022-11-16T15:45:57.157Z,99.90
2022-11-16T15:48:27.429Z,99.90
2022-11-16T15:51:05.905Z,99.90
2022-11-16T15:53:39.512Z,99.90
2022-11-16T15:56:12.926Z,99.90
2022-11-16T15:58:42.566Z,99.90
2022-11-16T16:01:15.360Z,99.90
2022-11-16T16:03:57.885Z,99.90
2022-11-16T16:06:49.620Z,99.90
2022-11-16T16:09:26.802Z,99.90
2022-11-16T16:11:58.015Z,99.90
2022-11-16T16:14:28.726Z,99.90
2022-11-16T16:16:59.016Z,99.90
2022-11-16T16:19:36.785Z,99.90
2022-11-16T16:22:07.105Z,99.90
2022-11-16T16:24:38.838Z,99.90
2022-11-16T16:27:20.032Z,99.90
2022-11-16T16:29:49.489Z,99.90
2022-11-16T16:32:24.233Z,99.90
2022-11-16T16:34:52.610Z,99.90
2022-11-16T16:37:20.739Z,99.90
2022-11-16T16:39:48.982Z,99.90
2022-11-16T16:42:19.269Z,99.90
2022-11-16T16:44:48.799Z,99.90
2022-11-16T16:47:17.735Z,99.90
2022-11-16T16:49:46.057Z,99.90
2022-11-16T16:52:14.906Z,99.90
2022-11-16T16:54:43.141Z,99.90
2022-11-16T16:57:14.941Z,99.90
2022-11-16T16:59:45.611Z,99.90
2022-11-16T17:02:14.363Z,99.90
2022-11-16T17:04:43.965Z,99.90
2022-11-16T17:07:12.437Z,99.90
2022-11-16T17:09:40.618Z,99.90
2022-11-16T17:12:10.251Z,99.90
2022-11-16T17:14:38.336Z,99.90
2022-11-16T17:17:07.812Z,99.90
2022-11-16T17:19:36.059Z,99.90
2022-11-16T17:22:04.318Z,99.90
2022-11-16T17:24:32.473Z,99.90
2022-11-16T17:27:00.591Z,99.90
2022-11-16T17:29:28.670Z,99.90
2022-11-16T17:31:56.849Z,99.90
2022-11-16T17:34:26.411Z,99.90
2022-11-16T17:36:55.849Z,99.90
2022-11-16T17:39:24.853Z,99.90
2022-11-16T17:41:53.366Z,99.90
2022-11-16T17:44:22.228Z,99.90
2022-11-16T17:46:50.633Z,99.90
2022-11-16T17:49:18.894Z,99.90
2022-11-16T17:51:48.453Z,99.90
2022-11-16T17:54:16.611Z,99.90
2022-11-16T17:56:44.919Z,99.90
2022-11-16T17:59:13.284Z,99.90
2022-11-16T18:01:41.518Z,99.90
2022-11-16T18:04:09.754Z,99.90
2022-11-16T18:06:38.244Z,99.90
2022-11-16T18:09:07.952Z,99.90
2022-11-16T18:11:36.401Z,99.90
2022-11-16T18:14:05.639Z,99.90
2022-11-16T18:16:34.632Z,99.90
2022-11-16T18:19:04.414Z,99.90
2022-11-16T18:21:33.814Z,99.90
2022-11-16T18:24:02.886Z,99.90
2022-11-16T18:26:32.504Z,99.90
2022-11-16T18:29:00.699Z,99.90
2022-11-16T18:31:29.779Z,1.00
2022-11-16T18:33:57.945Z,1.00
2022-11-16T18:36:26.148Z,1.00
2022-11-16T18:38:54.314Z,1.00
2022-11-16T18:41:25.131Z,99.90
2022-11-16T18:43:55.971Z,99.90
2022-11-16T18:46:25.494Z,99.90
2022-11-16T18:48:54.020Z,99.90
2022-11-16T18:51:23.398Z,99.90
2022-11-16T18:53:52.030Z,99.90
2022-11-16T18:56:20.957Z,99.90
2022-11-16T18:58:51.286Z,99.90
2022-11-16T19:01:24.430Z,99.90
2022-11-16T19:03:53.661Z,99.90
2022-11-16T19:06:22.318Z,99.90
2022-11-16T19:08:56.397Z,99.90
2022-11-16T19:11:25.818Z,99.90
2022-11-16T19:13:56.189Z,99.90
2022-11-16T19:16:26.159Z,99.90
2022-11-16T19:18:54.386Z,99.90
2022-11-16T19:21:23.846Z,99.90
2022-11-16T19:23:54.257Z,99.90
2022-11-16T19:26:25.019Z,99.90
2022-11-16T19:28:54.488Z,99.90
2022-11-16T19:31:25.860Z,99.90
2022-11-16T19:33:58.349Z,99.90
2022-11-16T19:36:27.380Z,99.90
2022-11-16T19:38:55.600Z,1.00
2022-11-16T19:41:24.981Z,1.00
2022-11-16T19:43:57.197Z,1.00
2022-11-16T19:46:28.063Z,1.00
2022-11-16T19:48:56.775Z,1.00
2022-11-16T19:51:26.512Z,1.00
2022-11-16T19:53:55.292Z,1.00
2022-11-16T19:56:25.125Z,1.00
2022-11-16T19:58:53.315Z,1.00
2022-11-16T20:01:23.582Z,1.00
2022-11-16T20:03:53.440Z,1.00
2022-11-16T20:06:23.780Z,1.00
2022-11-16T20:08:53.937Z,1.00
2022-11-16T20:11:25.377Z,1.00
2022-11-16T20:13:54.877Z,1.00
2022-11-16T20:16:24.908Z,1.00
2022-11-16T20:18:55.407Z,1.00
2022-11-16T20:21:25.709Z,1.00
2022-11-16T20:23:55.593Z,16.00
2022-11-16T20:26:25.727Z,53.80
2022-11-16T20:28:55.059Z,33.50
2022-11-16T20:31:25.946Z,59.80
2022-11-16T20:33:56.753Z,10.10
2022-11-16T20:36:26.847Z,33.50
2022-11-16T20:38:55.264Z,41.60
2022-11-16T20:41:24.999Z,99.90
2022-11-16T20:43:54.652Z,99.30
2022-11-16T20:46:24.083Z,99.90
2022-11-16T20:48:52.253Z,99.90
2022-11-16T20:51:22.187Z,25.40
2022-11-16T20:53:52.058Z,81.30
2022-11-16T20:56:20.958Z,34.80
2022-11-16T20:58:49.446Z,17.90
2022-11-16T21:01:20.063Z,17.00
2022-11-16T21:03:48.540Z,1.00
2022-11-16T21:06:17.080Z,1.00
2022-11-16T21:08:46.710Z,1.00
2022-11-16T21:11:16.720Z,1.00
2022-11-16T21:14:04.115Z,25.10
2022-11-16T21:16:33.172Z,12.00
2022-11-16T21:19:01.713Z,45.10
2022-11-16T21:21:30.380Z,44.40
2022-11-16T21:24:00.002Z,53.30
2022-11-16T21:26:31.259Z,91.50
2022-11-16T21:29:00.435Z,99.90
2022-11-16T21:31:30.597Z,64.40
2022-11-16T21:34:00.532Z,69.50
2022-11-16T21:36:30.191Z,99.90
2022-11-16T21:39:00.199Z,99.90
2022-11-16T21:41:28.572Z,99.90
2022-11-16T21:43:56.858Z,99.90
2022-11-16T21:46:26.565Z,99.90
2022-11-16T21:48:56.594Z,99.90
2022-11-16T21:51:26.892Z,99.90
2022-11-16T21:53:55.657Z,99.90
2022-11-16T21:56:26.547Z,99.90
2022-11-16T21:58:55.265Z,99.90
2022-11-16T22:01:24.524Z,99.90
2022-11-16T22:04:06.762Z,99.90
2022-11-16T22:06:52.339Z,99.90
2022-11-16T22:09:20.532Z,99.90
2022-11-16T22:11:50.006Z,99.90
2022-11-16T22:14:18.097Z,99.90
2022-11-16T22:16:46.234Z,99.90
2022-11-16T22:19:14.359Z,99.90
2022-11-16T22:21:42.667Z,99.90
2022-11-16T22:24:10.798Z,99.90
2022-11-16T22:26:39.955Z,99.90
2022-11-16T22:29:09.403Z,99.90
2022-11-16T22:31:37.516Z,99.90
2022-11-16T22:34:05.867Z,99.90
2022-11-16T22:36:34.004Z,99.90
2022-11-16T22:39:02.529Z,99.90
2022-11-16T22:41:30.789Z,99.90
2022-11-16T22:43:58.870Z,99.90
2022-11-16T22:46:28.397Z,99.90
2022-11-16T22:48:56.781Z,99.90
2022-11-16T22:51:26.247Z,99.90
2022-11-16T22:53:54.939Z,99.90
2022-11-16T22:56:23.578Z,1.00
2022-11-16T22:58:51.848Z,99.90
2022-11-16T23:01:20.254Z,99.90
2022-11-16T23:03:50.070Z,99.90
2022-11-16T23:06:18.771Z,99.90
2022-11-16T23:08:47.055Z,99.90
2022-11-16T23:11:34.649Z,99.90
2022-11-16T23:14:20.600Z,99.90
2022-11-16T23:16:49.089Z,99.90
2022-11-16T23:19:37.799Z,99.90
2022-11-16T23:22:24.079Z,99.90
2022-11-16T23:25:15.408Z,99.90
2022-11-16T23:27:50.655Z,99.90
2022-11-16T23:30:18.871Z,99.90
2022-11-16T23:32:47.343Z,1.00
2022-11-16T23:35:17.182Z,1.00
2022-11-16T23:37:52.955Z,1.00
2022-11-16T23:40:22.243Z,1.00
2022-11-16T23:43:07.803Z,1.00
2022-11-16T23:45:35.894Z,1.00
2022-11-16T23:48:04.008Z,1.00
2022-11-16T23:50:33.634Z,1.00
2022-11-16T23:53:01.803Z,45.40
2022-11-16T23:55:30.180Z,1.00
2022-11-16T23:57:58.265Z,1.00
